sensor_id;sensor_type;location;lat;lon;timestamp;pressure;altitude;pressure_sealevel;temperature;humidity
63568;BME280;49715;42.386;20.434;2023-02-13T00:02:18;99210.94;;;3.56;50.67
63568;BME280;49715;42.386;20.434;2023-02-13T00:04:45;99221.56;;;3.51;50.64
63568;BME280;49715;42.386;20.434;2023-02-13T00:07:11;99217.44;;;3.46;50.57
63568;BME280;49715;42.386;20.434;2023-02-13T00:09:37;99224.59;;;3.41;50.69
63568;BME280;49715;42.386;20.434;2023-02-13T00:12:04;99230.84;;;3.36;50.48
63568;BME280;49715;42.386;20.434;2023-02-13T00:14:33;99230.25;;;3.30;50.38
63568;BME280;49715;42.386;20.434;2023-02-13T00:16:59;99239.25;;;3.23;50.60
63568;BME280;49715;42.386;20.434;2023-02-13T00:19:25;99238.69;;;3.15;50.55
63568;BME280;49715;42.386;20.434;2023-02-13T00:21:51;99243.34;;;3.06;50.93
63568;BME280;49715;42.386;20.434;2023-02-13T00:24:18;99244.50;;;2.99;50.90
63568;BME280;49715;42.386;20.434;2023-02-13T00:26:44;99254.16;;;2.96;51.88
63568;BME280;49715;42.386;20.434;2023-02-13T00:29:10;99259.56;;;2.91;50.82
63568;BME280;49715;42.386;20.434;2023-02-13T00:31:37;99251.13;;;2.84;51.53
63568;BME280;49715;42.386;20.434;2023-02-13T00:34:03;99253.91;;;2.80;51.37
63568;BME280;49715;42.386;20.434;2023-02-13T00:36:29;99264.56;;;2.74;51.44
63568;BME280;49715;42.386;20.434;2023-02-13T00:38:55;99265.50;;;2.71;51.73
63568;BME280;49715;42.386;20.434;2023-02-13T00:41:21;99264.81;;;2.66;51.54
63568;BME280;49715;42.386;20.434;2023-02-13T00:43:49;99261.47;;;2.63;51.82
63568;BME280;49715;42.386;20.434;2023-02-13T00:46:15;99261.66;;;2.58;51.58
63568;BME280;49715;42.386;20.434;2023-02-13T00:48:42;99264.38;;;2.55;51.49
63568;BME280;49715;42.386;20.434;2023-02-13T00:51:08;99266.19;;;2.53;52.41
63568;BME280;49715;42.386;20.434;2023-02-13T00:53:35;99268.84;;;2.51;52.87
63568;BME280;49715;42.386;20.434;2023-02-13T00:56:02;99264.72;;;2.46;53.89
63568;BME280;49715;42.386;20.434;2023-02-13T00:58:28;99269.28;;;2.39;53.05
63568;BME280;49715;42.386;20.434;2023-02-13T01:00:54;99266.78;;;2.36;51.48
63568;BME280;49715;42.386;20.434;2023-02-13T01:03:21;99272.06;;;2.35;52.40
63568;BME280;49715;42.386;20.434;2023-02-13T01:05:47;99271.41;;;2.28;52.40
63568;BME280;49715;42.386;20.434;2023-02-13T01:08:15;99278.59;;;2.21;52.01
63568;BME280;49715;42.386;20.434;2023-02-13T01:10:41;99280.53;;;2.15;52.08
63568;BME280;49715;42.386;20.434;2023-02-13T01:13:08;99280.59;;;2.13;51.91
63568;BME280;49715;42.386;20.434;2023-02-13T01:15:35;99283.41;;;2.07;52.06
63568;BME280;49715;42.386;20.434;2023-02-13T01:18:01;99283.50;;;2.04;51.94
63568;BME280;49715;42.386;20.434;2023-02-13T01:20:28;99286.09;;;2.04;51.88
63568;BME280;49715;42.386;20.434;2023-02-13T01:22:56;99286.06;;;2.05;51.73
63568;BME280;49715;42.386;20.434;2023-02-13T01:25:22;99285.09;;;2.08;51.38
63568;BME280;49715;42.386;20.434;2023-02-13T01:27:49;99283.19;;;2.13;52.07
63568;BME280;49715;42.386;20.434;2023-02-13T01:30:17;99285.56;;;2.19;51.94
63568;BME280;49715;42.386;20.434;2023-02-13T01:32:43;99288.78;;;2.27;51.28
63568;BME280;49715;42.386;20.434;2023-02-13T01:35:10;99292.88;;;2.35;51.06
63568;BME280;49715;42.386;20.434;2023-02-13T01:37:38;99288.34;;;2.40;50.98
63568;BME280;49715;42.386;20.434;2023-02-13T01:40:04;99290.75;;;2.46;50.98
63568;BME280;49715;42.386;20.434;2023-02-13T01:42:32;99303.44;;;2.55;50.76
63568;BME280;49715;42.386;20.434;2023-02-13T01:44:59;99310.91;;;2.64;50.52
63568;BME280;49715;42.386;20.434;2023-02-13T01:47:31;99305.47;;;2.70;50.41
63568;BME280;49715;42.386;20.434;2023-02-13T01:50:18;99314.75;;;2.77;50.98
63568;BME280;49715;42.386;20.434;2023-02-13T01:52:48;99318.41;;;2.73;51.87
63568;BME280;49715;42.386;20.434;2023-02-13T01:55:16;99316.00;;;2.67;50.53
63568;BME280;49715;42.386;20.434;2023-02-13T01:57:45;99316.22;;;2.61;51.12
63568;BME280;49715;42.386;20.434;2023-02-13T02:00:13;99317.16;;;2.58;50.71
63568;BME280;49715;42.386;20.434;2023-02-13T02:02:57;99324.13;;;2.58;50.49
63568;BME280;49715;42.386;20.434;2023-02-13T02:05:26;99325.94;;;2.56;51.04
63568;BME280;49715;42.386;20.434;2023-02-13T02:07:54;99327.63;;;2.57;51.42
63568;BME280;49715;42.386;20.434;2023-02-13T02:10:23;99329.31;;;2.58;50.74
63568;BME280;49715;42.386;20.434;2023-02-13T02:12:56;99331.38;;;2.50;51.35
63568;BME280;49715;42.386;20.434;2023-02-13T02:15:23;99332.44;;;2.44;51.03
63568;BME280;49715;42.386;20.434;2023-02-13T02:17:50;99318.16;;;2.31;51.10
63568;BME280;49715;42.386;20.434;2023-02-13T02:28:04;99336.13;;;2.37;52.23
63568;BME280;49715;42.386;20.434;2023-02-13T02:31:18;99339.03;;;2.29;52.01
63568;BME280;49715;42.386;20.434;2023-02-13T02:33:29;99338.50;;;2.20;51.66
63568;BME280;49715;42.386;20.434;2023-02-13T02:47:00;99344.38;;;1.72;52.17
63568;BME280;49715;42.386;20.434;2023-02-13T02:49:50;99356.84;;;1.61;52.56
63568;BME280;49715;42.386;20.434;2023-02-13T02:52:34;99357.31;;;1.47;53.31
63568;BME280;49715;42.386;20.434;2023-02-13T02:55:22;99358.56;;;1.34;53.04
63568;BME280;49715;42.386;20.434;2023-02-13T02:57:57;99357.13;;;1.23;52.70
63568;BME280;49715;42.386;20.434;2023-02-13T03:00:44;99352.25;;;1.13;52.93
63568;BME280;49715;42.386;20.434;2023-02-13T03:03:29;99352.59;;;1.00;53.24
63568;BME280;49715;42.386;20.434;2023-02-13T03:06:17;99348.56;;;0.90;53.43
63568;BME280;49715;42.386;20.434;2023-02-13T03:08:45;99350.44;;;0.85;53.10
63568;BME280;49715;42.386;20.434;2023-02-13T03:11:36;99343.69;;;0.80;53.45
63568;BME280;49715;42.386;20.434;2023-02-13T03:14:23;99343.81;;;0.75;53.11
63568;BME280;49715;42.386;20.434;2023-02-13T03:16:51;99347.31;;;0.72;53.15
63568;BME280;49715;42.386;20.434;2023-02-13T03:19:56;99349.97;;;0.71;53.14
63568;BME280;49715;42.386;20.434;2023-02-13T03:22:57;99347.31;;;0.74;52.54
63568;BME280;49715;42.386;20.434;2023-02-13T03:25:29;99354.13;;;0.76;52.95
63568;BME280;49715;42.386;20.434;2023-02-13T03:28:05;99354.91;;;0.80;53.20
63568;BME280;49715;42.386;20.434;2023-02-13T03:30:57;99352.25;;;0.83;53.23
63568;BME280;49715;42.386;20.434;2023-02-13T03:33:42;99344.41;;;0.85;52.36
63568;BME280;49715;42.386;20.434;2023-02-13T03:39:07;99347.06;;;0.83;52.82
63568;BME280;49715;42.386;20.434;2023-02-13T03:41:44;99345.31;;;0.82;52.51
63568;BME280;49715;42.386;20.434;2023-02-13T03:46:46;99340.50;;;0.70;52.73
63568;BME280;49715;42.386;20.434;2023-02-13T03:49:19;99348.34;;;0.67;52.69
63568;BME280;49715;42.386;20.434;2023-02-13T03:52:09;99339.84;;;0.62;52.29
63568;BME280;49715;42.386;20.434;2023-02-13T03:54:45;99339.13;;;0.57;53.35
63568;BME280;49715;42.386;20.434;2023-02-13T03:57:32;99348.78;;;0.51;54.11
63568;BME280;49715;42.386;20.434;2023-02-13T04:00:20;99349.75;;;0.47;54.28
63568;BME280;49715;42.386;20.434;2023-02-13T04:02:48;99341.47;;;0.33;53.66
63568;BME280;49715;42.386;20.434;2023-02-13T04:05:19;99354.41;;;0.35;52.84
63568;BME280;49715;42.386;20.434;2023-02-13T04:07:46;99359.84;;;0.25;53.21
63568;BME280;49715;42.386;20.434;2023-02-13T04:10:13;99352.19;;;0.19;52.92
63568;BME280;49715;42.386;20.434;2023-02-13T04:15:33;99356.63;;;0.16;53.52
63568;BME280;49715;42.386;20.434;2023-02-13T04:18:08;99350.59;;;0.15;53.11
63568;BME280;49715;42.386;20.434;2023-02-13T04:20:36;99347.22;;;0.12;53.13
63568;BME280;49715;42.386;20.434;2023-02-13T04:23:04;99344.69;;;0.09;53.25
63568;BME280;49715;42.386;20.434;2023-02-13T04:25:31;99352.47;;;0.09;53.20
63568;BME280;49715;42.386;20.434;2023-02-13T04:27:58;99350.72;;;0.09;53.41
63568;BME280;49715;42.386;20.434;2023-02-13T04:30:24;99346.44;;;0.08;53.43
63568;BME280;49715;42.386;20.434;2023-02-13T04:32:50;99356.81;;;0.08;53.37
63568;BME280;49715;42.386;20.434;2023-02-13T04:35:17;99352.44;;;0.10;52.51
63568;BME280;49715;42.386;20.434;2023-02-13T04:37:43;99347.38;;;0.06;52.56
63568;BME280;49715;42.386;20.434;2023-02-13T04:40:10;99350.94;;;0.02;53.05
63568;BME280;49715;42.386;20.434;2023-02-13T04:42:36;99358.78;;;-0.02;53.33
63568;BME280;49715;42.386;20.434;2023-02-13T04:45:02;99352.75;;;-0.02;53.67
63568;BME280;49715;42.386;20.434;2023-02-13T04:47:28;99352.75;;;-0.02;53.06
63568;BME280;49715;42.386;20.434;2023-02-13T04:49:54;99346.72;;;-0.03;53.11
63568;BME280;49715;42.386;20.434;2023-02-13T04:52:21;99357.13;;;-0.04;53.08
63568;BME280;49715;42.386;20.434;2023-02-13T04:54:47;99357.13;;;-0.04;53.48
63568;BME280;49715;42.386;20.434;2023-02-13T04:57:13;99354.59;;;-0.07;52.94
63568;BME280;49715;42.386;20.434;2023-02-13T04:59:40;99356.50;;;-0.14;53.17
63568;BME280;49715;42.386;20.434;2023-02-13T05:02:06;99350.56;;;-0.19;53.61
63568;BME280;49715;42.386;20.434;2023-02-13T05:04:32;99351.44;;;-0.20;53.54
63568;BME280;49715;42.386;20.434;2023-02-13T05:06:58;99361.81;;;-0.20;53.37
63568;BME280;49715;42.386;20.434;2023-02-13T05:09:25;99359.25;;;-0.21;53.56
63568;BME280;49715;42.386;20.434;2023-02-13T05:11:51;99357.56;;;-0.22;53.79
63568;BME280;49715;42.386;20.434;2023-02-13T05:14:18;99359.31;;;-0.23;53.39
63568;BME280;49715;42.386;20.434;2023-02-13T05:16:44;99357.72;;;-0.30;53.90
63568;BME280;49715;42.386;20.434;2023-02-13T05:19:10;99362.16;;;-0.35;53.69
63568;BME280;49715;42.386;20.434;2023-02-13T05:21:36;99363.09;;;-0.38;53.73
63568;BME280;49715;42.386;20.434;2023-02-13T05:24:21;99370.91;;;-0.39;53.05
63568;BME280;49715;42.386;20.434;2023-02-13T05:26:48;99363.22;;;-0.42;53.57
63568;BME280;49715;42.386;20.434;2023-02-13T05:29:14;99367.66;;;-0.49;53.73
63568;BME280;49715;42.386;20.434;2023-02-13T05:31:47;99365.19;;;-0.54;53.91
63568;BME280;49715;42.386;20.434;2023-02-13T05:34:14;99370.41;;;-0.55;53.92
63568;BME280;49715;42.386;20.434;2023-02-13T05:36:40;99383.38;;;-0.57;53.83
63568;BME280;49715;42.386;20.434;2023-02-13T05:39:06;99387.69;;;-0.56;53.43
63568;BME280;49715;42.386;20.434;2023-02-13T05:41:33;99381.69;;;-0.59;53.70
63568;BME280;49715;42.386;20.434;2023-02-13T05:43:59;99383.50;;;-0.61;53.48
63568;BME280;49715;42.386;20.434;2023-02-13T05:46:25;99384.38;;;-0.64;54.17
63568;BME280;49715;42.386;20.434;2023-02-13T05:48:52;99397.28;;;-0.61;53.79
63568;BME280;49715;42.386;20.434;2023-02-13T05:51:18;99394.69;;;-0.61;54.10
63568;BME280;49715;42.386;20.434;2023-02-13T05:53:44;99398.13;;;-0.60;54.14
63568;BME280;49715;42.386;20.434;2023-02-13T05:56:11;99398.97;;;-0.58;54.18
63568;BME280;49715;42.386;20.434;2023-02-13T05:58:37;99405.72;;;-0.51;54.31
63568;BME280;49715;42.386;20.434;2023-02-13T06:01:03;99403.03;;;-0.46;54.03
63568;BME280;49715;42.386;20.434;2023-02-13T06:03:30;99403.81;;;-0.44;53.99
63568;BME280;49715;42.386;20.434;2023-02-13T06:05:57;99400.28;;;-0.40;54.18
63568;BME280;49715;42.386;20.434;2023-02-13T06:08:23;99409.66;;;-0.35;54.18
63568;BME280;49715;42.386;20.434;2023-02-13T06:10:50;99404.38;;;-0.30;54.15
63568;BME280;49715;42.386;20.434;2023-02-13T06:13:16;99408.59;;;-0.26;54.02
63568;BME280;49715;42.386;20.434;2023-02-13T06:15:42;99409.44;;;-0.24;53.64
63568;BME280;49715;42.386;20.434;2023-02-13T06:18:09;99404.16;;;-0.21;53.93
63568;BME280;49715;42.386;20.434;2023-02-13T06:20:36;99410.13;;;-0.17;53.38
63568;BME280;49715;42.386;20.434;2023-02-13T06:23:02;99401.66;;;-0.24;53.85
63568;BME280;49715;42.386;20.434;2023-02-13T06:25:28;99412.66;;;-0.14;53.66
63568;BME280;49715;42.386;20.434;2023-02-13T06:27:54;99407.34;;;-0.08;53.71
63568;BME280;49715;42.386;20.434;2023-02-13T06:30:21;99417.56;;;-0.02;53.57
63568;BME280;49715;42.386;20.434;2023-02-13T06:32:47;99415.69;;;0.03;53.67
63568;BME280;49715;42.386;20.434;2023-02-13T06:35:14;99416.50;;;0.07;53.71
63568;BME280;49715;42.386;20.434;2023-02-13T06:37:40;99419.81;;;0.12;53.67
63568;BME280;49715;42.386;20.434;2023-02-13T06:40:09;99427.38;;;0.21;53.88
63568;BME280;49715;42.386;20.434;2023-02-13T06:42:35;99415.03;;;0.31;53.38
63568;BME280;49715;42.386;20.434;2023-02-13T06:45:01;99415.78;;;0.36;53.31
63568;BME280;49715;42.386;20.434;2023-02-13T06:47:28;99426.88;;;0.41;53.48
63568;BME280;49715;42.386;20.434;2023-02-13T06:49:55;99425.03;;;0.46;53.42
63568;BME280;49715;42.386;20.434;2023-02-13T06:52:21;99424.81;;;0.54;53.49
63568;BME280;49715;42.386;20.434;2023-02-13T06:54:48;99429.88;;;0.60;53.45
63568;BME280;49715;42.386;20.434;2023-02-13T06:57:14;99427.97;;;0.66;53.31
63568;BME280;49715;42.386;20.434;2023-02-13T06:59:44;99432.13;;;0.72;53.48
63568;BME280;49715;42.386;20.434;2023-02-13T07:02:11;99407.13;;;0.68;53.44
63568;BME280;49715;42.386;20.434;2023-02-13T07:04:38;99424.16;;;0.80;52.91
63568;BME280;49715;42.386;20.434;2023-02-13T07:07:06;99425.84;;;0.81;52.68
63568;BME280;49715;42.386;20.434;2023-02-13T07:09:33;99427.47;;;0.85;52.59
63568;BME280;49715;42.386;20.434;2023-02-13T07:12:03;99424.78;;;0.88;52.68
63568;BME280;49715;42.386;20.434;2023-02-13T07:14:30;99434.25;;;0.90;52.52
63568;BME280;49715;42.386;20.434;2023-02-13T07:16:56;99432.44;;;0.94;52.31
63568;BME280;49715;42.386;20.434;2023-02-13T07:19:23;99430.72;;;0.93;52.60
63568;BME280;49715;42.386;20.434;2023-02-13T07:21:50;99430.56;;;0.97;53.00
63568;BME280;49715;42.386;20.434;2023-02-13T07:24:17;99434.78;;;1.03;52.98
63568;BME280;49715;42.386;20.434;2023-02-13T07:26:44;99438.84;;;1.12;52.68
63568;BME280;49715;42.386;20.434;2023-02-13T07:29:10;99432.47;;;1.22;52.75
63568;BME280;49715;42.386;20.434;2023-02-13T07:31:41;99435.59;;;1.35;52.91
63568;BME280;49715;42.386;20.434;2023-02-13T07:34:11;99443.06;;;1.47;52.53
63568;BME280;49715;42.386;20.434;2023-02-13T07:36:38;99427.13;;;1.58;52.64
63568;BME280;49715;42.386;20.434;2023-02-13T07:39:08;99436.34;;;1.68;52.13
63568;BME280;49715;42.386;20.434;2023-02-13T07:41:34;99433.50;;;1.75;52.22
63568;BME280;49715;42.386;20.434;2023-02-13T07:44:07;99441.94;;;1.84;52.68
63568;BME280;49715;42.386;20.434;2023-02-13T07:46:56;99438.22;;;1.92;52.54
63568;BME280;49715;42.386;20.434;2023-02-13T07:49:25;99436.97;;;2.04;52.48
63568;BME280;49715;42.386;20.434;2023-02-13T07:51:54;99435.69;;;2.17;52.38
63568;BME280;49715;42.386;20.434;2023-02-13T07:54:21;99435.25;;;2.31;52.05
63568;BME280;49715;42.386;20.434;2023-02-13T07:56:47;99428.75;;;2.44;51.76
63568;BME280;49715;42.386;20.434;2023-02-13T07:59:15;99436.97;;;2.57;51.96
63568;BME280;49715;42.386;20.434;2023-02-13T08:01:49;99435.75;;;2.67;51.69
63568;BME280;49715;42.386;20.434;2023-02-13T08:04:20;99431.91;;;2.79;51.41
63568;BME280;49715;42.386;20.434;2023-02-13T08:06:46;99431.75;;;2.83;51.55
63568;BME280;49715;42.386;20.434;2023-02-13T08:09:26;99433.38;;;2.86;51.62
63568;BME280;49715;42.386;20.434;2023-02-13T08:12:31;99430.28;;;3.00;51.69
63568;BME280;49715;42.386;20.434;2023-02-13T08:15:00;99432.44;;;3.12;51.68
63568;BME280;49715;42.386;20.434;2023-02-13T08:17:29;99430.19;;;3.26;51.38
63568;BME280;49715;42.386;20.434;2023-02-13T08:19:56;99431.44;;;3.40;51.28
63568;BME280;49715;42.386;20.434;2023-02-13T08:22:26;99428.31;;;3.53;51.24
63568;BME280;49715;42.386;20.434;2023-02-13T08:24:55;99432.19;;;3.67;50.87
63568;BME280;49715;42.386;20.434;2023-02-13T08:27:22;99431.69;;;3.79;50.72
63568;BME280;49715;42.386;20.434;2023-02-13T08:29:52;99430.50;;;3.87;50.58
63568;BME280;49715;42.386;20.434;2023-02-13T08:32:18;99424.19;;;3.93;51.11
63568;BME280;49715;42.386;20.434;2023-02-13T08:34:47;99425.69;;;3.99;51.33
63568;BME280;49715;42.386;20.434;2023-02-13T08:55:52;99406.59;;;4.81;49.31
63568;BME280;49715;42.386;20.434;2023-02-13T08:58:22;99405.56;;;4.85;49.64
63568;BME280;49715;42.386;20.434;2023-02-13T09:00:49;99411.25;;;4.95;49.68
63568;BME280;49715;42.386;20.434;2023-02-13T09:03:18;99404.69;;;5.05;49.63
63568;BME280;49715;42.386;20.434;2023-02-13T09:05:44;99408.47;;;5.19;49.11
63568;BME280;49715;42.386;20.434;2023-02-13T09:08:12;99403.53;;;5.31;48.67
63568;BME280;49715;42.386;20.434;2023-02-13T09:10:39;99398.03;;;5.37;48.62
63568;BME280;49715;42.386;20.434;2023-02-13T09:13:14;99403.91;;;5.42;48.60
63568;BME280;49715;42.386;20.434;2023-02-13T09:15:41;99409.81;;;5.46;48.39
63568;BME280;49715;42.386;20.434;2023-02-13T09:18:08;99402.41;;;5.56;48.35
63568;BME280;49715;42.386;20.434;2023-02-13T09:20:34;99408.06;;;5.65;48.23
63568;BME280;49715;42.386;20.434;2023-02-13T09:23:00;99410.94;;;5.78;47.94
63568;BME280;49715;42.386;20.434;2023-02-13T09:25:43;99404.44;;;5.87;47.94
63568;BME280;49715;42.386;20.434;2023-02-13T09:28:12;99406.56;;;5.98;47.38
63568;BME280;49715;42.386;20.434;2023-02-13T09:30:42;99402.69;;;6.06;47.45
63568;BME280;49715;42.386;20.434;2023-02-13T09:33:10;99405.00;;;6.12;47.50
63568;BME280;49715;42.386;20.434;2023-02-13T09:35:37;99409.25;;;6.15;47.38
63568;BME280;49715;42.386;20.434;2023-02-13T09:38:06;99398.13;;;6.10;47.71
63568;BME280;49715;42.386;20.434;2023-02-13T09:43:21;99397.22;;;6.28;47.36
63568;BME280;49715;42.386;20.434;2023-02-13T09:45:52;99397.63;;;6.38;46.82
63568;BME280;49715;42.386;20.434;2023-02-13T09:48:39;99395.47;;;6.46;47.00
63568;BME280;49715;42.386;20.434;2023-02-13T09:51:13;99386.97;;;6.58;46.84
63568;BME280;49715;42.386;20.434;2023-02-13T09:53:49;99381.22;;;6.69;46.81
63568;BME280;49715;42.386;20.434;2023-02-13T09:56:31;99380.06;;;6.75;46.57
63568;BME280;49715;42.386;20.434;2023-02-13T09:59:04;99378.97;;;6.79;46.70
63568;BME280;49715;42.386;20.434;2023-02-13T10:01:42;99373.91;;;6.91;46.38
63568;BME280;49715;42.386;20.434;2023-02-13T10:04:19;99377.09;;;6.98;45.77
63568;BME280;49715;42.386;20.434;2023-02-13T10:17:43;99346.34;;;7.49;45.33
63568;BME280;49715;42.386;20.434;2023-02-13T10:20:36;99343.13;;;7.60;45.31
63568;BME280;49715;42.386;20.434;2023-02-13T10:25:51;99334.25;;;7.78;45.49
63568;BME280;49715;42.386;20.434;2023-02-13T10:28:44;99328.13;;;7.93;45.25
63568;BME280;49715;42.386;20.434;2023-02-13T10:31:14;99320.97;;;8.11;44.65
63568;BME280;49715;42.386;20.434;2023-02-13T10:33:45;99320.06;;;8.26;45.45
63568;BME280;49715;42.386;20.434;2023-02-13T10:36:18;99314.22;;;8.37;44.07
63568;BME280;49715;42.386;20.434;2023-02-13T10:41:34;99307.47;;;8.47;44.30
63568;BME280;49715;42.386;20.434;2023-02-13T10:44:30;99306.09;;;8.56;45.04
63568;BME280;49715;42.386;20.434;2023-02-13T10:57:32;99280.16;;;9.07;43.54
63568;BME280;49715;42.386;20.434;2023-02-13T11:02:33;99278.13;;;9.39;42.99
63568;BME280;49715;42.386;20.434;2023-02-13T11:05:13;99273.66;;;9.54;43.51
63568;BME280;49715;42.386;20.434;2023-02-13T11:07:41;99274.34;;;9.70;43.50
63568;BME280;49715;42.386;20.434;2023-02-13T11:10:19;99272.91;;;9.79;42.80
63568;BME280;49715;42.386;20.434;2023-02-13T11:12:45;99262.44;;;9.92;42.53
63568;BME280;49715;42.386;20.434;2023-02-13T11:17:52;99259.91;;;10.03;40.29
63568;BME280;49715;42.386;20.434;2023-02-13T11:20:36;99260.97;;;10.00;40.25
63568;BME280;49715;42.386;20.434;2023-02-13T11:26:05;99252.13;;;10.01;42.68
63568;BME280;49715;42.386;20.434;2023-02-13T11:28:37;99250.44;;;10.00;43.57
63568;BME280;49715;42.386;20.434;2023-02-13T11:33:56;99240.28;;;9.82;42.54
63568;BME280;49715;42.386;20.434;2023-02-13T11:36:30;99234.28;;;9.92;43.87
63568;BME280;49715;42.386;20.434;2023-02-13T11:39:04;99226.00;;;10.11;42.34
63568;BME280;49715;42.386;20.434;2023-02-13T11:41:49;99222.03;;;10.31;40.57
63568;BME280;49715;42.386;20.434;2023-02-13T11:44:25;99221.84;;;10.60;42.29
63568;BME280;49715;42.386;20.434;2023-02-13T11:46:53;99218.94;;;10.75;43.10
63568;BME280;49715;42.386;20.434;2023-02-13T11:49:28;99220.94;;;10.85;42.53
63568;BME280;49715;42.386;20.434;2023-02-13T11:54:58;99202.78;;;11.17;40.54
63568;BME280;49715;42.386;20.434;2023-02-13T11:57:35;99202.44;;;11.34;41.37
63568;BME280;49715;42.386;20.434;2023-02-13T12:02:50;99214.16;;;11.54;42.12
63568;BME280;49715;42.386;20.434;2023-02-13T12:05:24;99194.75;;;11.66;39.34
63568;BME280;49715;42.386;20.434;2023-02-13T12:07:58;99192.78;;;11.81;39.09
63568;BME280;49715;42.386;20.434;2023-02-13T12:10:32;99192.50;;;11.97;39.77
63568;BME280;49715;42.386;20.434;2023-02-13T12:15:32;99195.56;;;12.26;37.90
63568;BME280;49715;42.386;20.434;2023-02-13T12:26:20;99179.22;;;12.43;40.97
63568;BME280;49715;42.386;20.434;2023-02-13T12:37:08;99156.84;;;12.58;39.21
63568;BME280;49715;42.386;20.434;2023-02-13T12:42:17;99147.84;;;12.61;37.65
63568;BME280;49715;42.386;20.434;2023-02-13T12:50:12;99141.94;;;12.69;38.69
63568;BME280;49715;42.386;20.434;2023-02-13T12:52:48;99140.50;;;12.76;38.00
63568;BME280;49715;42.386;20.434;2023-02-13T13:00:48;99125.53;;;12.97;38.92
63568;BME280;49715;42.386;20.434;2023-02-13T13:03:27;99122.22;;;13.16;39.17
63568;BME280;49715;42.386;20.434;2023-02-13T13:14:06;99106.06;;;13.62;37.82
63568;BME280;49715;42.386;20.434;2023-02-13T13:16:38;99096.94;;;13.76;39.14
63568;BME280;49715;42.386;20.434;2023-02-13T13:22:03;99096.97;;;14.07;38.83
63568;BME280;49715;42.386;20.434;2023-02-13T13:24:36;99093.16;;;14.00;35.18
63568;BME280;49715;42.386;20.434;2023-02-13T13:27:12;99087.28;;;13.96;39.18
63568;BME280;49715;42.386;20.434;2023-02-13T13:29:42;99092.16;;;13.91;37.67
63568;BME280;49715;42.386;20.434;2023-02-13T13:32:15;99072.63;;;13.92;38.19
63568;BME280;49715;42.386;20.434;2023-02-13T13:34:47;99088.78;;;14.20;37.88
63568;BME280;49715;42.386;20.434;2023-02-13T13:39:57;99080.78;;;14.40;38.75
63568;BME280;49715;42.386;20.434;2023-02-13T13:42:32;99082.19;;;14.45;38.30
63568;BME280;49715;42.386;20.434;2023-02-13T13:50:52;99085.88;;;14.23;34.26
63568;BME280;49715;42.386;20.434;2023-02-13T13:53:19;99081.22;;;14.15;36.02
63568;BME280;49715;42.386;20.434;2023-02-13T13:58:35;99075.81;;;13.96;39.69
63568;BME280;49715;42.386;20.434;2023-02-13T14:03:45;99071.75;;;14.12;38.09
63568;BME280;49715;42.386;20.434;2023-02-13T14:06:12;99067.84;;;14.16;37.40
63568;BME280;49715;42.386;20.434;2023-02-13T14:11:23;99071.81;;;14.32;38.30
63568;BME280;49715;42.386;20.434;2023-02-13T14:13:52;99059.41;;;14.42;38.31
63568;BME280;49715;42.386;20.434;2023-02-13T14:21:49;99056.38;;;14.47;38.26
63568;BME280;49715;42.386;20.434;2023-02-13T14:24:18;99054.44;;;14.49;38.17
63568;BME280;49715;42.386;20.434;2023-02-13T14:26:54;99053.91;;;14.55;38.76
63568;BME280;49715;42.386;20.434;2023-02-13T14:29:28;99050.84;;;14.59;38.93
63568;BME280;49715;42.386;20.434;2023-02-13T14:34:28;99055.19;;;14.60;38.68
63568;BME280;49715;42.386;20.434;2023-02-13T14:39:30;99050.13;;;14.57;38.06
63568;BME280;49715;42.386;20.434;2023-02-13T14:42:00;99044.91;;;14.46;35.38
63568;BME280;49715;42.386;20.434;2023-02-13T14:47:00;99049.66;;;14.42;38.21
63568;BME280;49715;42.386;20.434;2023-02-13T14:49:28;99049.66;;;14.42;39.08
63568;BME280;49715;42.386;20.434;2023-02-13T14:52:00;99051.88;;;14.37;39.48
63568;BME280;49715;42.386;20.434;2023-02-13T14:54:38;99055.47;;;14.27;38.18
63568;BME280;49715;42.386;20.434;2023-02-13T14:59:44;99049.25;;;14.07;38.57
63568;BME280;49715;42.386;20.434;2023-02-13T15:02:17;99051.47;;;14.02;38.23
63568;BME280;49715;42.386;20.434;2023-02-13T15:05:00;99045.72;;;13.97;39.22
63568;BME280;49715;42.386;20.434;2023-02-13T15:07:30;99045.38;;;13.90;38.92
63568;BME280;49715;42.386;20.434;2023-02-13T15:10:05;99052.19;;;13.83;40.09
63568;BME280;49715;42.386;20.434;2023-02-13T15:12:41;99053.22;;;13.71;38.91
63568;BME280;49715;42.386;20.434;2023-02-13T15:15:22;99044.53;;;13.59;39.77
63568;BME280;49715;42.386;20.434;2023-02-13T15:17:57;99049.63;;;13.51;40.21
63568;BME280;49715;42.386;20.434;2023-02-13T15:20:29;99052.34;;;13.39;39.47
63568;BME280;49715;42.386;20.434;2023-02-13T15:22:57;99055.44;;;13.24;39.83
63568;BME280;49715;42.386;20.434;2023-02-13T15:25:28;99053.06;;;13.09;40.75
63568;BME280;49715;42.386;20.434;2023-02-13T15:27:58;99056.63;;;12.87;40.16
63568;BME280;49715;42.386;20.434;2023-02-13T15:30:26;99056.81;;;12.63;40.38
63568;BME280;49715;42.386;20.434;2023-02-13T15:32:54;99055.28;;;12.38;40.36
63568;BME280;49715;42.386;20.434;2023-02-13T15:37:51;99058.31;;;11.89;40.14
63568;BME280;49715;42.386;20.434;2023-02-13T15:40:25;99068.84;;;11.67;40.31
63568;BME280;49715;42.386;20.434;2023-02-13T15:42:52;99061.81;;;11.43;40.53
63568;BME280;49715;42.386;20.434;2023-02-13T15:45:19;99060.91;;;11.20;40.08
63568;BME280;49715;42.386;20.434;2023-02-13T15:47:47;99068.72;;;10.98;40.51
63568;BME280;49715;42.386;20.434;2023-02-13T15:52:49;99061.41;;;10.53;40.35
63568;BME280;49715;42.386;20.434;2023-02-13T15:55:17;99059.03;;;10.38;40.57
63568;BME280;49715;42.386;20.434;2023-02-13T15:57:46;99046.63;;;10.14;40.73
63568;BME280;49715;42.386;20.434;2023-02-13T16:00:20;99071.72;;;10.07;40.68
63568;BME280;49715;42.386;20.434;2023-02-13T16:02:48;99066.56;;;9.93;41.15
63568;BME280;49715;42.386;20.434;2023-02-13T16:05:15;99072.78;;;9.79;41.23
63568;BME280;49715;42.386;20.434;2023-02-13T16:07:50;99067.63;;;9.65;41.13
63568;BME280;49715;42.386;20.434;2023-02-13T16:10:25;99075.59;;;9.50;41.06